createdAt,value
2019-05-09T00:00:53.405Z,13.24
2019-05-09T00:03:59.381Z,13.24
2019-05-09T00:07:05.205Z,12.99
2019-05-09T00:10:11.146Z,13.26
2019-05-09T00:13:16.857Z,13.23
2019-05-09T00:16:23.496Z,13.06
2019-05-09T00:19:29.372Z,12.99
2019-05-09T00:22:35.058Z,12.85
2019-05-09T00:25:43.146Z,12.87
2019-05-09T00:28:53.267Z,12.91
2019-05-09T00:32:08.143Z,12.93
2019-05-09T00:35:44.242Z,13.02
2019-05-09T00:38:50.107Z,12.81
2019-05-09T00:41:55.789Z,12.71
2019-05-09T00:45:04.134Z,12.77
2019-05-09T00:48:13.949Z,12.79
2019-05-09T00:51:19.031Z,12.76
2019-05-09T00:54:24.721Z,12.76
2019-05-09T00:57:36.530Z,12.59
2019-05-09T01:00:43.971Z,12.59
2019-05-09T01:03:49.952Z,12.53
2019-05-09T01:06:55.737Z,12.74
2019-05-09T01:10:04.059Z,12.92
2019-05-09T01:13:08.964Z,13.03
2019-05-09T01:16:14.673Z,12.77
2019-05-09T01:19:20.331Z,12.69
2019-05-09T01:22:26.055Z,12.78
2019-05-09T01:25:33.489Z,12.61
2019-05-09T01:28:39.513Z,12.71
2019-05-09T01:31:45.383Z,12.80
2019-05-09T01:34:53.001Z,12.80
2019-05-09T01:37:58.574Z,12.66
2019-05-09T01:41:04.359Z,12.60
2019-05-09T01:44:10.190Z,12.57
2019-05-09T01:47:15.921Z,12.61
2019-05-09T01:50:23.317Z,12.68
2019-05-09T01:53:33.960Z,12.76
2019-05-09T01:56:39.835Z,12.84
2019-05-09T01:59:45.588Z,12.91
2019-05-09T02:02:53.408Z,12.93
2019-05-09T02:05:58.831Z,12.87
2019-05-09T02:09:06.390Z,12.78
2019-05-09T02:12:13.979Z,12.80
2019-05-09T02:15:37.991Z,12.85
2019-05-09T02:19:01.504Z,12.72
2019-05-09T02:22:26.023Z,12.39
2019-05-09T02:25:33.482Z,12.66
2019-05-09T02:28:39.334Z,12.41
2019-05-09T02:31:45.192Z,12.52
2019-05-09T02:34:50.853Z,12.02
2019-05-09T02:37:58.682Z,12.25
2019-05-09T02:41:04.043Z,12.12
2019-05-09T02:44:09.771Z,12.01
2019-05-09T02:47:19.756Z,12.08
2019-05-09T02:50:28.379Z,12.10
2019-05-09T02:53:32.960Z,12.20
2019-05-09T02:56:38.787Z,11.99
2019-05-09T03:00:20.145Z,11.94
2019-05-09T03:03:29.220Z,12.09
2019-05-09T03:06:35.075Z,12.17
2019-05-09T03:09:40.870Z,11.99
2019-05-09T03:12:49.950Z,12.10
2019-05-09T03:15:58.669Z,11.86
2019-05-09T03:19:03.825Z,12.15
2019-05-09T03:22:15.262Z,12.06
2019-05-09T03:25:21.084Z,12.18
2019-05-09T03:28:39.645Z,12.18
2019-05-09T03:31:49.741Z,12.14
2019-05-09T03:34:53.415Z,12.33
2019-05-09T03:38:08.553Z,12.42
2019-05-09T03:41:14.657Z,12.71
2019-05-09T03:44:20.349Z,12.79
2019-05-09T03:47:44.966Z,13.06
2019-05-09T03:50:50.665Z,13.47
2019-05-09T03:53:57.639Z,13.67
2019-05-09T03:57:10.311Z,13.93
2019-05-09T04:00:18.048Z,14.10
2019-05-09T04:03:23.647Z,13.99
2019-05-09T04:06:29.757Z,14.26
2019-05-09T04:09:37.771Z,13.69
2019-05-09T04:12:53.898Z,12.99
2019-05-09T04:15:50.623Z,13.26
2019-05-09T04:18:58.106Z,13.26
2019-05-09T04:22:04.155Z,13.55
2019-05-09T04:25:11.755Z,13.21
2019-05-09T04:28:20.596Z,13.42
2019-05-09T04:31:28.046Z,13.24
2019-05-09T04:34:33.976Z,13.27
2019-05-09T04:37:39.670Z,13.40
2019-05-09T04:40:48.179Z,13.36
2019-05-09T04:43:52.784Z,13.47
2019-05-09T04:46:59.878Z,13.65
2019-05-09T04:50:07.629Z,13.76
2019-05-09T04:53:13.471Z,13.34
2019-05-09T04:56:24.302Z,14.03
2019-05-09T04:59:30.445Z,13.96
2019-05-09T05:02:48.603Z,14.07
2019-05-09T05:05:54.352Z,14.26
2019-05-09T05:09:00.023Z,14.48
2019-05-09T05:12:08.208Z,14.92
2019-05-09T05:15:13.714Z,15.18
2019-05-09T05:18:20.276Z,15.14
2019-05-09T05:21:28.008Z,14.92
2019-05-09T05:24:45.244Z,14.53
2019-05-09T05:27:50.947Z,14.63
2019-05-09T05:30:58.197Z,14.67
2019-05-09T05:34:08.587Z,15.11
2019-05-09T05:37:14.239Z,14.88
2019-05-09T05:40:20.083Z,14.87
2019-05-09T05:43:38.556Z,15.12
2019-05-09T05:46:47.264Z,15.72
2019-05-09T05:49:51.147Z,16.10
2019-05-09T05:52:57.804Z,15.66
2019-05-09T05:56:03.843Z,15.83
2019-05-09T05:59:09.584Z,16.08
2019-05-09T06:02:17.609Z,15.77
2019-05-09T06:05:22.911Z,15.77
2019-05-09T06:08:28.619Z,15.76
2019-05-09T06:11:38.442Z,15.64
2019-05-09T06:14:44.416Z,15.66
2019-05-09T06:17:50.095Z,15.57
2019-05-09T06:20:58.135Z,15.48
2019-05-09T06:24:03.350Z,15.65
2019-05-09T06:27:10.315Z,15.50
2019-05-09T06:30:23.879Z,15.49
2019-05-09T06:33:29.709Z,15.48
2019-05-09T06:36:38.653Z,15.49
2019-05-09T06:39:42.891Z,16.12
2019-05-09T06:42:49.023Z,16.72
2019-05-09T06:46:19.785Z,16.92
2019-05-09T06:49:31.927Z,16.82
2019-05-09T06:52:37.636Z,17.45
2019-05-09T06:55:43.365Z,16.80
2019-05-09T06:58:49.259Z,17.87
2019-05-09T07:02:03.410Z,18.19
2019-05-09T07:05:18.042Z,18.44
2019-05-09T07:08:34.429Z,18.90
2019-05-09T07:11:41.138Z,19.06
2019-05-09T07:14:48.630Z,19.38
2019-05-09T07:17:54.701Z,19.87
2019-05-09T07:21:00.526Z,19.49
2019-05-09T07:24:07.957Z,19.27
2019-05-09T07:27:13.824Z,19.34
2019-05-09T07:30:39.113Z,19.98
2019-05-09T07:33:48.913Z,20.06
2019-05-09T07:36:54.670Z,20.12
2019-05-09T07:40:00.354Z,20.31
2019-05-09T07:43:07.723Z,20.52
2019-05-09T07:46:22.263Z,20.24
2019-05-09T07:49:28.897Z,20.64
2019-05-09T07:52:34.586Z,20.73
2019-05-09T07:55:40.286Z,20.88
2019-05-09T07:58:47.785Z,20.68
2019-05-09T08:01:53.643Z,20.88
2019-05-09T08:04:59.655Z,21.20
2019-05-09T08:08:09.109Z,21.21
2019-05-09T08:11:15.168Z,21.45
2019-05-09T08:14:20.864Z,20.54
2019-05-09T08:17:28.647Z,21.30
2019-05-09T08:20:34.013Z,21.68
2019-05-09T08:23:39.698Z,21.22
2019-05-09T08:26:47.638Z,21.30
2019-05-09T08:29:52.786Z,20.82
2019-05-09T08:32:59.890Z,20.91
2019-05-09T08:36:08.775Z,20.82
2019-05-09T08:39:13.473Z,20.89
2019-05-09T08:42:20.038Z,20.73
2019-05-09T08:45:30.825Z,20.91
2019-05-09T08:48:33.466Z,20.85
2019-05-09T08:52:08.064Z,21.13
2019-05-09T08:54:58.929Z,21.15
2019-05-09T08:58:04.634Z,20.88
2019-05-09T09:01:11.745Z,21.32
2019-05-09T09:04:18.931Z,21.09
2019-05-09T09:07:24.882Z,21.30
2019-05-09T09:10:30.624Z,20.75
2019-05-09T09:13:37.789Z,21.06
2019-05-09T09:16:43.733Z,21.15
2019-05-09T09:19:49.495Z,21.98
2019-05-09T09:22:55.228Z,21.94
2019-05-09T09:26:00.983Z,22.33
2019-05-09T09:29:08.465Z,22.29
2019-05-09T09:32:14.527Z,23.04
2019-05-09T09:35:20.372Z,22.73
2019-05-09T09:38:28.030Z,22.89
2019-05-09T09:41:33.542Z,23.38
2019-05-09T09:44:39.696Z,22.29
2019-05-09T09:47:48.271Z,22.61
2019-05-09T09:50:54.115Z,23.01
2019-05-09T09:53:59.860Z,23.55
2019-05-09T09:57:05.652Z,23.32
2019-05-09T10:00:32.021Z,23.14
2019-05-09T10:03:37.712Z,23.59
2019-05-09T10:06:43.465Z,23.40
2019-05-09T10:09:49.235Z,22.93
2019-05-09T10:12:54.981Z,22.19
2019-05-09T10:16:32.321Z,21.34
2019-05-09T10:19:41.378Z,21.19
2019-05-09T10:22:57.614Z,21.96
2019-05-09T10:25:54.543Z,22.43
2019-05-09T10:29:00.286Z,22.26
2019-05-09T10:32:09.167Z,22.31
2019-05-09T10:35:21.917Z,22.02
2019-05-09T10:38:28.093Z,21.78
2019-05-09T10:41:33.925Z,21.99
2019-05-09T10:44:43.456Z,22.45
2019-05-09T10:47:49.197Z,22.99
2019-05-09T10:50:55.302Z,22.94
2019-05-09T10:54:02.334Z,23.39
2019-05-09T10:57:08.039Z,23.98
2019-05-09T11:00:13.875Z,23.12
2019-05-09T11:03:20.429Z,23.29
2019-05-09T11:06:28.661Z,22.90
2019-05-09T11:09:33.692Z,22.63
2019-05-09T11:12:39.488Z,22.59
2019-05-09T11:15:45.180Z,22.67
2019-05-09T11:18:50.898Z,22.11
2019-05-09T11:21:58.657Z,22.65
2019-05-09T11:25:04.188Z,22.72
2019-05-09T11:28:12.590Z,22.99
2019-05-09T11:31:18.502Z,23.48
2019-05-09T11:34:24.686Z,23.87
2019-05-09T11:37:30.516Z,23.57
2019-05-09T11:45:44.452Z,23.41
2019-05-09T11:48:53.179Z,23.73
2019-05-09T11:51:58.864Z,23.29
2019-05-09T11:55:04.719Z,23.28
2019-05-09T11:58:10.447Z,23.55
2019-05-09T12:01:18.596Z,23.12
2019-05-09T12:04:23.975Z,23.29
2019-05-09T12:07:29.866Z,23.54
2019-05-09T12:10:38.104Z,23.89
2019-05-09T12:13:43.154Z,24.25
2019-05-09T12:16:48.893Z,24.33
2019-05-09T12:20:09.074Z,24.55
2019-05-09T12:23:02.094Z,24.13
2019-05-09T12:26:08.313Z,24.39
2019-05-09T12:29:14.130Z,24.62
2019-05-09T12:32:19.930Z,24.69
2019-05-09T12:35:25.685Z,24.48
2019-05-09T12:38:31.438Z,24.14
2019-05-09T12:41:38.413Z,24.14
2019-05-09T12:44:44.328Z,24.11
2019-05-09T12:48:05.840Z,24.28
2019-05-09T12:50:58.579Z,24.21
2019-05-09T12:54:05.004Z,23.75
2019-05-09T12:57:10.869Z,23.41
2019-05-09T13:00:18.657Z,23.29
2019-05-09T13:03:24.214Z,23.58
2019-05-09T13:06:30.040Z,23.84
2019-05-09T13:09:38.665Z,23.58
2019-05-09T13:12:44.337Z,23.64
2019-05-09T13:15:58.247Z,23.61
2019-05-09T13:19:08.291Z,23.63
2019-05-09T13:22:14.461Z,23.40
2019-05-09T13:25:20.274Z,23.38
2019-05-09T13:28:26.342Z,23.37
2019-05-09T13:31:34.706Z,23.07
2019-05-09T13:34:57.884Z,22.58
2019-05-09T13:38:03.375Z,22.47
2019-05-09T13:41:10.905Z,21.93
2019-05-09T13:44:18.224Z,22.04
2019-05-09T13:47:24.064Z,21.80
2019-05-09T13:50:29.816Z,21.89
2019-05-09T13:53:35.564Z,21.85
2019-05-09T13:56:41.333Z,21.72
2019-05-09T13:59:49.287Z,21.71
2019-05-09T14:02:55.158Z,21.45
2019-05-09T14:06:00.978Z,21.42
2019-05-09T14:09:10.382Z,21.45
2019-05-09T14:12:17.564Z,21.32
2019-05-09T14:15:23.607Z,21.26
2019-05-09T14:18:29.402Z,21.23
2019-05-09T14:21:38.081Z,21.11
2019-05-09T14:24:43.778Z,21.13
2019-05-09T14:27:52.446Z,20.87
2019-05-09T14:30:59.418Z,20.82
2019-05-09T14:34:05.735Z,20.61
2019-05-09T14:37:11.985Z,20.53
2019-05-09T14:40:17.828Z,20.61
2019-05-09T14:43:23.724Z,20.73
2019-05-09T14:46:29.619Z,20.84
2019-05-09T14:49:41.384Z,20.93
2019-05-09T14:52:45.185Z,20.94
2019-05-09T14:55:50.965Z,20.87
2019-05-09T14:58:58.132Z,21.04
2019-05-09T15:02:04.286Z,20.98
2019-05-09T15:05:10.082Z,20.98
2019-05-09T15:08:18.093Z,20.75
2019-05-09T15:11:23.395Z,20.58
2019-05-09T15:14:29.346Z,20.66
2019-05-09T15:17:35.043Z,20.68
2019-05-09T15:20:40.809Z,20.60
2019-05-09T15:23:48.187Z,20.66
2019-05-09T15:26:54.052Z,20.50
2019-05-09T15:29:59.761Z,20.38
2019-05-09T15:33:08.186Z,20.35
2019-05-09T15:36:15.581Z,20.34
2019-05-09T15:39:21.222Z,20.05
2019-05-09T15:42:27.322Z,20.07
2019-05-09T15:45:40.798Z,20.08
2019-05-09T15:48:44.671Z,19.98
2019-05-09T15:51:50.381Z,20.10
2019-05-09T15:54:58.049Z,20.08
2019-05-09T15:58:03.445Z,20.04
2019-05-09T16:01:09.272Z,19.93
2019-05-09T16:04:17.569Z,19.95
2019-05-09T16:07:22.952Z,19.87
2019-05-09T16:10:28.834Z,19.91
2019-05-09T16:13:37.132Z,19.77
2019-05-09T16:16:42.198Z,19.89
2019-05-09T16:19:49.055Z,19.87
2019-05-09T16:22:57.688Z,19.81
2019-05-09T16:26:03.493Z,19.80
2019-05-09T16:29:09.208Z,19.86
2019-05-09T16:32:14.896Z,19.87
2019-05-09T16:35:20.710Z,19.88
2019-05-09T16:38:41.318Z,19.81
2019-05-09T16:41:39.208Z,19.61
2019-05-09T16:44:48.110Z,19.30
2019-05-09T16:47:53.930Z,19.51
2019-05-09T16:51:03.921Z,19.61
2019-05-09T16:54:07.537Z,19.40
2019-05-09T16:57:18.240Z,19.26
2019-05-09T17:00:35.276Z,19.28
2019-05-09T17:03:41.103Z,19.29
2019-05-09T17:06:49.501Z,19.02
2019-05-09T17:09:54.328Z,19.06
2019-05-09T17:13:01.184Z,19.00
2019-05-09T17:16:07.517Z,19.00
2019-05-09T17:19:13.359Z,18.87
2019-05-09T17:22:24.457Z,18.82
2019-05-09T17:25:38.489Z,18.87
2019-05-09T17:28:43.855Z,18.92
2019-05-09T17:31:49.689Z,18.96
2019-05-09T17:34:55.493Z,19.02
2019-05-09T17:38:01.181Z,19.03
2019-05-09T17:41:08.236Z,19.01
2019-05-09T17:44:14.248Z,19.01
2019-05-09T17:47:20.032Z,19.01
2019-05-09T17:50:28.742Z,18.95
2019-05-09T17:53:34.590Z,18.90
2019-05-09T17:56:40.328Z,18.92
2019-05-09T17:59:48.800Z,18.82
2019-05-09T18:02:53.644Z,18.83
2019-05-09T18:05:59.483Z,18.80
2019-05-09T18:09:08.537Z,18.84
2019-05-09T18:12:14.373Z,18.77
2019-05-09T18:15:21.668Z,18.58
2019-05-09T18:18:28.395Z,18.65
2019-05-09T18:21:50.693Z,18.53
2019-05-09T18:24:57.733Z,18.70
2019-05-09T18:28:04.766Z,18.76
2019-05-09T18:31:18.769Z,18.80
2019-05-09T18:34:25.474Z,18.81
2019-05-09T18:37:37.163Z,18.83
2019-05-09T18:40:42.596Z,18.38
2019-05-09T18:43:48.354Z,18.54
2019-05-09T18:46:57.847Z,18.61
2019-05-09T18:50:03.940Z,18.54
2019-05-09T18:53:09.590Z,18.56
2019-05-09T18:56:15.449Z,18.59
2019-05-09T18:59:21.159Z,18.44
2019-05-09T19:02:27.191Z,18.57
2019-05-09T19:05:33.200Z,18.58
2019-05-09T19:08:38.963Z,18.50
2019-05-09T19:11:44.896Z,18.53
2019-05-09T19:14:50.867Z,18.51
2019-05-09T19:18:18.356Z,18.59
2019-05-09T19:21:27.725Z,18.52
2019-05-09T19:24:33.425Z,18.52
2019-05-09T19:27:39.453Z,18.38
2019-05-09T19:30:52.457Z,18.54
2019-05-09T19:33:58.180Z,18.48
2019-05-09T19:37:04.181Z,18.52
2019-05-09T19:43:14.890Z,18.32
2019-05-09T19:46:21.443Z,18.24
2019-05-09T19:49:38.453Z,18.40
2019-05-09T19:52:46.956Z,18.30
2019-05-09T19:56:00.278Z,18.29
2019-05-09T19:59:49.404Z,18.32
2019-05-09T20:03:16.555Z,18.25
2019-05-09T20:14:56.592Z,17.98
2019-05-09T20:18:04.984Z,17.76
2019-05-09T20:21:14.649Z,17.97
2019-05-09T20:24:34.427Z,17.97
2019-05-09T20:27:44.379Z,18.15
2019-05-09T20:31:02.853Z,17.91
2019-05-09T20:34:08.795Z,17.94
2019-05-09T20:37:15.113Z,17.64
2019-05-09T20:40:21.490Z,17.96
2019-05-09T20:43:28.154Z,17.93
2019-05-09T20:46:36.160Z,18.01
2019-05-09T20:49:44.759Z,18.01
2019-05-09T20:52:51.081Z,17.99
2019-05-09T20:55:58.884Z,18.03
2019-05-09T20:59:13.032Z,18.00
2019-05-09T21:02:24.166Z,17.78
2019-05-09T21:05:33.206Z,17.48
2019-05-09T21:09:54.727Z,17.76
2019-05-09T21:13:47.479Z,17.65
2019-05-09T21:16:42.575Z,17.81
2019-05-09T21:19:48.451Z,17.97
2019-05-09T21:22:54.591Z,17.92
2019-05-09T21:26:00.525Z,17.54
2019-05-09T21:29:06.509Z,17.48
2019-05-09T21:32:12.409Z,17.40
2019-05-09T21:35:18.194Z,17.57
2019-05-09T21:38:23.981Z,17.69
2019-05-09T21:41:29.733Z,17.77
2019-05-09T21:44:35.797Z,17.93
2019-05-09T21:47:41.973Z,17.94
2019-05-09T21:50:47.892Z,18.00
2019-05-09T21:53:54.800Z,17.93
2019-05-09T21:57:00.501Z,17.91
2019-05-09T22:00:10.085Z,17.94
2019-05-09T22:03:17.620Z,17.99
2019-05-09T22:06:23.402Z,18.01
2019-05-09T22:09:29.108Z,17.93
2019-05-09T22:12:34.984Z,17.76
2019-05-09T22:15:40.677Z,17.76
2019-05-09T22:18:46.578Z,17.65
2019-05-09T22:21:52.256Z,17.62
2019-05-09T22:24:58.071Z,17.62
2019-05-09T22:28:03.755Z,17.60
2019-05-09T22:31:09.485Z,17.60
2019-05-09T22:34:15.229Z,17.60
2019-05-09T22:37:20.910Z,17.52
2019-05-09T22:40:26.777Z,17.36
2019-05-09T22:43:32.659Z,17.36
2019-05-09T22:46:38.377Z,17.49
2019-05-09T22:49:44.149Z,17.49
2019-05-09T22:52:49.827Z,17.43
2019-05-09T22:55:55.559Z,17.12
2019-05-09T22:59:02.485Z,17.12
2019-05-09T23:02:10.016Z,16.76
2019-05-09T23:05:15.930Z,16.87
2019-05-09T23:08:25.105Z,16.76
2019-05-09T23:11:30.949Z,17.00
2019-05-09T23:14:36.824Z,16.89
2019-05-09T23:17:42.702Z,16.89
2019-05-09T23:21:03.413Z,16.87
2019-05-09T23:24:10.435Z,17.03
2019-05-09T23:27:17.952Z,17.22
2019-05-09T23:30:23.721Z,17.26
2019-05-09T23:33:31.881Z,17.19
2019-05-09T23:36:37.798Z,17.24
2019-05-09T23:39:45.461Z,17.21
2019-05-09T23:42:51.153Z,17.06
2019-05-09T23:45:56.965Z,17.11
2019-05-09T23:49:02.720Z,17.11
2019-05-09T23:52:08.497Z,17.14
2019-05-09T23:55:31.950Z,17.11
2019-05-09T23:58:55.290Z,17.06
